createdAt,value
2023-04-09T00:01:04.535Z,101373.25
2023-04-09T00:02:11.177Z,101372.56
2023-04-09T00:03:14.416Z,101374.66
2023-04-09T00:04:16.917Z,101370.22
2023-04-09T00:05:19.233Z,101373.13
2023-04-09T00:06:21.494Z,101371.41
2023-04-09T00:07:23.766Z,101375.16
2023-04-09T00:08:28.912Z,101374.13
2023-04-09T00:09:32.626Z,101372.63
2023-04-09T00:10:35.484Z,101373.47
2023-04-09T00:11:37.840Z,101370.91
2023-04-09T00:12:40.202Z,101370.06
2023-04-09T00:13:42.852Z,101368.38
2023-04-09T00:14:46.751Z,101372.97
2023-04-09T00:15:48.980Z,101370.25
2023-04-09T00:16:51.265Z,101371.28
2023-04-09T00:17:53.613Z,101362.25
2023-04-09T00:18:56.653Z,101366.00
2023-04-09T00:19:58.946Z,101361.41
2023-04-09T00:21:01.331Z,101364.31
2023-04-09T00:22:03.592Z,101357.16
2023-04-09T00:23:06.289Z,101366.16
2023-04-09T00:24:09.148Z,101364.50
2023-04-09T00:25:11.516Z,101362.78
2023-04-09T00:26:13.941Z,101366.53
2023-04-09T00:27:16.943Z,101364.81
2023-04-09T00:28:19.188Z,101360.25
2023-04-09T00:29:21.489Z,101364.00
2023-04-09T00:30:23.824Z,101370.44
2023-04-09T00:31:26.504Z,101370.44
2023-04-09T00:32:28.865Z,101371.66
2023-04-09T00:33:31.634Z,101373.34
2023-04-09T00:34:34.382Z,101369.94
2023-04-09T00:35:37.184Z,101369.09
2023-04-09T00:36:39.480Z,101369.28
2023-04-09T00:37:41.945Z,101372.66
2023-04-09T00:38:44.208Z,101370.97
2023-04-09T00:39:47.779Z,101363.84
2023-04-09T00:40:51.004Z,101380.19
2023-04-09T00:41:58.352Z,101364.88
2023-04-09T00:43:01.666Z,101366.72
2023-04-09T00:44:04.029Z,101365.03
2023-04-09T00:45:06.986Z,101361.44
2023-04-09T00:46:09.417Z,101358.72
2023-04-09T00:47:11.727Z,101355.16
2023-04-09T00:48:15.871Z,101356.19
2023-04-09T00:49:18.290Z,101354.31
2023-04-09T00:50:21.719Z,101354.47
2023-04-09T00:51:24.411Z,101358.25
2023-04-09T00:52:27.317Z,101356.38
2023-04-09T00:53:29.660Z,101355.69
2023-04-09T00:54:32.726Z,101354.84
2023-04-09T00:55:36.229Z,101352.97
2023-04-09T00:56:41.497Z,101359.44
2023-04-09T00:57:44.252Z,101355.22
2023-04-09T00:58:47.155Z,101358.06
2023-04-09T00:59:50.871Z,101357.06
2023-04-09T01:00:53.206Z,101359.97
2023-04-09T01:01:56.136Z,101358.25
2023-04-09T01:02:59.727Z,101362.88
2023-04-09T01:04:02.850Z,101363.69
2023-04-09T01:05:05.668Z,101374.78
2023-04-09T01:06:19.488Z,101373.06
2023-04-09T01:07:37.399Z,101366.09
2023-04-09T01:08:58.605Z,101371.53
2023-04-09T01:10:22.043Z,101370.88
2023-04-09T01:11:49.130Z,101376.47
2023-04-09T01:13:28.684Z,101373.09
2023-04-09T01:14:43.448Z,101368.84
2023-04-09T01:15:56.247Z,101367.16
2023-04-09T01:17:06.920Z,101364.59
2023-04-09T01:18:23.166Z,101366.47
2023-04-09T01:19:45.743Z,101376.50
2023-04-09T01:21:17.381Z,101374.81
2023-04-09T01:22:39.971Z,101377.69
2023-04-09T01:23:53.041Z,101373.28
2023-04-09T01:25:43.980Z,101374.13
2023-04-09T01:27:08.853Z,101378.91
2023-04-09T01:28:28.125Z,101380.97
2023-04-09T01:29:48.426Z,101389.97
2023-04-09T01:30:54.133Z,101379.44
2023-04-09T01:31:56.578Z,101393.03
2023-04-09T01:33:00.560Z,101392.16
2023-04-09T01:34:05.253Z,101383.16
2023-04-09T01:35:09.651Z,101389.63
2023-04-09T01:36:13.791Z,101386.06
2023-04-09T01:37:17.449Z,101386.06
2023-04-09T01:38:21.987Z,101384.19
2023-04-09T01:39:24.447Z,101381.47
2023-04-09T01:40:26.771Z,101371.59
2023-04-09T01:41:32.680Z,101373.28
2023-04-09T01:42:36.644Z,101373.28
2023-04-09T01:43:39.645Z,101374.31
2023-04-09T01:44:44.361Z,101366.16
2023-04-09T01:45:48.902Z,101367.84
2023-04-09T01:46:52.307Z,101372.47
2023-04-09T01:47:56.370Z,101376.00
2023-04-09T01:48:59.551Z,101375.19
2023-04-09T01:50:03.526Z,101385.03
2023-04-09T01:51:06.146Z,101400.50
2023-04-09T01:52:09.949Z,101393.38
2023-04-09T01:53:13.275Z,101390.63
2023-04-09T01:54:19.075Z,101392.53
2023-04-09T01:55:21.543Z,101386.22
2023-04-09T01:56:23.862Z,101387.09
2023-04-09T01:57:26.229Z,101385.19
2023-04-09T01:58:29.024Z,101382.47
2023-04-09T01:59:31.466Z,101383.34
2023-04-09T02:00:40.013Z,101380.44
2023-04-09T02:01:54.858Z,101378.75
2023-04-09T02:03:06.368Z,101377.72
2023-04-09T02:04:20.259Z,101380.44
2023-04-09T02:05:28.460Z,101387.75
2023-04-09T02:06:53.841Z,101384.38
2023-04-09T02:07:59.606Z,101381.63
2023-04-09T02:09:06.033Z,101389.81
2023-04-09T02:10:11.214Z,101390.81
2023-04-09T02:11:15.445Z,101387.41
2023-04-09T02:12:20.169Z,101396.25
2023-04-09T02:13:24.162Z,101392.00
2023-04-09T02:14:28.568Z,101392.19
2023-04-09T02:15:32.552Z,101389.47
2023-04-09T02:16:36.457Z,101388.59
2023-04-09T02:17:38.836Z,101390.66
2023-04-09T02:18:41.472Z,101388.78
2023-04-09T02:19:46.226Z,101397.97
2023-04-09T02:20:49.184Z,101395.41
2023-04-09T02:21:51.544Z,101391.84
2023-04-09T02:22:53.806Z,101395.59
2023-04-09T02:23:57.438Z,101387.44
2023-04-09T02:25:00.051Z,101391.16
2023-04-09T02:26:02.921Z,101395.75
2023-04-09T02:27:06.344Z,101385.91
2023-04-09T02:28:08.575Z,101396.78
2023-04-09T02:29:10.826Z,101384.19
2023-04-09T02:30:13.230Z,101387.94
2023-04-09T02:31:16.148Z,101389.97
2023-04-09T02:32:20.472Z,101393.41
2023-04-09T02:33:24.428Z,101391.88
2023-04-09T02:34:26.705Z,101387.44
2023-04-09T02:35:29.191Z,101406.47
2023-04-09T02:36:31.486Z,101387.63
2023-04-09T02:37:34.840Z,101387.63
2023-04-09T02:38:37.213Z,101383.19
2023-04-09T02:39:39.530Z,101394.06
2023-04-09T02:40:42.009Z,101384.19
2023-04-09T02:41:44.705Z,101391.53
2023-04-09T02:42:47.086Z,101383.38
2023-04-09T02:43:49.414Z,101383.50
2023-04-09T02:44:51.677Z,101384.38
2023-04-09T02:45:54.040Z,101383.69
2023-04-09T02:46:57.023Z,101390.00
2023-04-09T02:47:59.476Z,101389.31
2023-04-09T02:49:01.822Z,101380.31
2023-04-09T02:50:05.082Z,101386.75
2023-04-09T02:51:08.906Z,101384.22
2023-04-09T02:52:11.595Z,101388.97
2023-04-09T02:53:13.912Z,101389.13
2023-04-09T02:54:16.393Z,101393.88
2023-04-09T02:55:19.615Z,101389.47
2023-04-09T02:56:21.864Z,101391.34
2023-04-09T02:57:24.235Z,101386.06
2023-04-09T02:58:26.581Z,101381.81
2023-04-09T02:59:28.838Z,101380.13
2023-04-09T03:00:31.197Z,101388.28
2023-04-09T03:01:33.545Z,101392.00
2023-04-09T03:02:37.209Z,101393.06
2023-04-09T03:03:42.621Z,101394.06
2023-04-09T03:04:45.068Z,101393.38
2023-04-09T03:05:47.373Z,101390.66
2023-04-09T03:06:51.813Z,101397.09
2023-04-09T03:07:55.207Z,101391.84
2023-04-09T03:08:57.476Z,101396.44
2023-04-09T03:09:59.762Z,101392.84
2023-04-09T03:11:02.032Z,101398.47
2023-04-09T03:12:04.549Z,101390.31
2023-04-09T03:13:06.840Z,101396.78
2023-04-09T03:14:09.556Z,101400.50
2023-04-09T03:15:11.966Z,101401.34
2023-04-09T03:16:14.227Z,101404.25
2023-04-09T03:17:16.616Z,101395.25
2023-04-09T03:18:19.367Z,101397.28
2023-04-09T03:19:22.816Z,101403.41
2023-04-09T03:20:25.214Z,101398.09
2023-04-09T03:21:27.707Z,101397.28
2023-04-09T03:22:29.969Z,101400.16
2023-04-09T03:23:35.232Z,101389.47
2023-04-09T03:24:39.156Z,101395.91
2023-04-09T03:25:42.093Z,101397.75
2023-04-09T03:26:49.948Z,101391.47
2023-04-09T03:27:52.524Z,101388.78
2023-04-09T03:29:06.025Z,101387.94
2023-04-09T03:30:10.311Z,101392.50
2023-04-09T03:31:18.613Z,101388.94
2023-04-09T03:32:23.338Z,101392.66
2023-04-09T03:33:26.236Z,101386.41
2023-04-09T03:34:31.129Z,101384.69
2023-04-09T03:35:35.179Z,101380.25
2023-04-09T03:36:39.027Z,101379.44
2023-04-09T03:37:54.017Z,101377.72
2023-04-09T03:38:56.959Z,101380.44
2023-04-09T03:40:09.145Z,101378.56
2023-04-09T03:41:12.671Z,101375.00
2023-04-09T03:42:14.952Z,101380.63
2023-04-09T03:43:22.250Z,101376.84
2023-04-09T03:44:27.582Z,101378.72
2023-04-09T03:45:34.552Z,101388.75
2023-04-09T03:46:49.549Z,101378.03
2023-04-09T03:47:55.160Z,101381.44
2023-04-09T03:49:01.293Z,101376.00
2023-04-09T03:50:23.420Z,101386.88
2023-04-09T03:51:29.602Z,101383.31
2023-04-09T03:52:35.467Z,101389.59
2023-04-09T03:53:47.081Z,101391.47
2023-04-09T03:54:54.232Z,101388.75
2023-04-09T03:55:59.975Z,101386.03
2023-04-09T03:57:03.974Z,101392.31
2023-04-09T03:58:06.505Z,101384.16
2023-04-09T03:59:11.138Z,101383.16
2023-04-09T04:00:16.424Z,101387.72
2023-04-09T04:01:46.701Z,101396.75
2023-04-09T04:02:49.785Z,101395.75
2023-04-09T04:03:54.875Z,101401.16
2023-04-09T04:05:01.611Z,101395.75
2023-04-09T04:06:09.735Z,101397.59
2023-04-09T04:07:37.278Z,101394.03
2023-04-09T04:08:48.825Z,101399.47
2023-04-09T04:09:52.029Z,101399.28
2023-04-09T04:10:55.532Z,101402.00
2023-04-09T04:11:59.055Z,101391.13
2023-04-09T04:13:15.967Z,101392.16
2023-04-09T04:14:24.653Z,101402.84
2023-04-09T04:15:34.428Z,101392.84
2023-04-09T04:16:43.035Z,101390.13
2023-04-09T04:17:46.852Z,101386.53
2023-04-09T04:18:59.078Z,101396.41
2023-04-09T04:20:03.332Z,101393.69
2023-04-09T04:21:14.845Z,101395.56
2023-04-09T04:22:20.593Z,101394.69
2023-04-09T04:23:26.676Z,101402.72
2023-04-09T04:24:36.167Z,101396.41
2023-04-09T04:25:42.184Z,101393.50
2023-04-09T04:26:47.690Z,101395.38
2023-04-09T04:27:53.097Z,101395.38
2023-04-09T04:28:58.599Z,101393.50
2023-04-09T04:30:18.964Z,101394.38
2023-04-09T04:31:36.370Z,101397.94
2023-04-09T04:32:38.801Z,101399.66
2023-04-09T04:33:44.768Z,101394.22
2023-04-09T04:34:50.789Z,101398.63
2023-04-09T04:36:07.392Z,101391.31
2023-04-09T04:37:17.012Z,101397.63
2023-04-09T04:38:19.519Z,101391.13
2023-04-09T04:39:22.994Z,101386.75
2023-04-09T04:40:37.290Z,101396.25
2023-04-09T04:41:39.547Z,101397.97
2023-04-09T04:42:47.164Z,101387.94
2023-04-09T04:43:51.473Z,101392.34
2023-04-09T04:44:57.534Z,101399.50
2023-04-09T04:46:13.949Z,101396.78
2023-04-09T04:47:16.501Z,101392.84
2023-04-09T04:48:20.600Z,101392.84
2023-04-09T04:49:22.881Z,101398.13
2023-04-09T04:50:26.378Z,101397.09
2023-04-09T04:51:36.177Z,101396.09
2023-04-09T04:52:45.111Z,101395.91
2023-04-09T04:53:47.754Z,101405.78
2023-04-09T04:54:51.713Z,101405.59
2023-04-09T04:55:57.829Z,101410.03
2023-04-09T04:57:02.805Z,101410.72
2023-04-09T04:58:11.992Z,101411.56
2023-04-09T04:59:21.493Z,101415.16
2023-04-09T05:00:35.851Z,101407.66
2023-04-09T05:01:40.215Z,101418.34
2023-04-09T05:02:46.901Z,101416.50
2023-04-09T05:04:14.515Z,101421.78
2023-04-09T05:05:16.865Z,101420.75
2023-04-09T05:06:25.084Z,101417.03
2023-04-09T05:07:28.642Z,101414.13
2023-04-09T05:08:32.372Z,101413.97
2023-04-09T05:09:34.701Z,101412.94
2023-04-09T05:10:43.483Z,101420.94
2023-04-09T05:11:47.129Z,101419.03
2023-04-09T05:12:54.323Z,101413.28
2023-04-09T05:14:06.552Z,101417.69
2023-04-09T05:15:09.109Z,101420.25
2023-04-09T05:16:22.416Z,101420.91
2023-04-09T05:17:31.479Z,101416.19
2023-04-09T05:18:33.776Z,101413.28
2023-04-09T05:19:36.176Z,101419.41
2023-04-09T05:20:38.800Z,101425.53
2023-04-09T05:21:46.803Z,101431.66
2023-04-09T05:22:52.448Z,101419.75
2023-04-09T05:24:01.281Z,101414.78
2023-04-09T05:25:08.446Z,101418.22
2023-04-09T05:26:15.814Z,101417.00
2023-04-09T05:27:26.259Z,101424.00
2023-04-09T05:28:33.222Z,101426.19
2023-04-09T05:29:48.989Z,101424.97
2023-04-09T05:30:51.696Z,101422.97
2023-04-09T05:31:54.534Z,101425.31
2023-04-09T05:33:05.265Z,101422.28
2023-04-09T05:34:08.382Z,101427.19
2023-04-09T05:35:19.163Z,101422.44
2023-04-09T05:36:21.540Z,101429.22
2023-04-09T05:37:23.837Z,101428.03
2023-04-09T05:38:29.335Z,101426.84
2023-04-09T05:39:34.157Z,101433.63
2023-04-09T05:40:37.026Z,101430.56
2023-04-09T05:41:47.021Z,101426.63
2023-04-09T05:43:03.214Z,101436.19
2023-04-09T05:44:14.148Z,101420.50
2023-04-09T05:45:16.659Z,101427.28
2023-04-09T05:46:24.521Z,101428.81
2023-04-09T05:47:29.543Z,101435.78
2023-04-09T05:48:39.522Z,101431.69
2023-04-09T05:49:42.256Z,101423.34
2023-04-09T05:50:55.979Z,101426.56
2023-04-09T05:52:01.902Z,101430.66
2023-04-09T05:53:07.399Z,101425.88
2023-04-09T05:54:14.546Z,101430.13
2023-04-09T05:55:16.944Z,101425.16
2023-04-09T05:56:23.685Z,101432.97
2023-04-09T05:57:32.001Z,101433.47
2023-04-09T05:58:37.557Z,101438.41
2023-04-09T05:59:41.142Z,101436.34
2023-04-09T06:00:43.866Z,101447.75
2023-04-09T06:01:46.238Z,101444.66
2023-04-09T06:02:51.197Z,101439.72
2023-04-09T06:03:55.502Z,101451.78
2023-04-09T06:05:00.399Z,101449.72
2023-04-09T06:06:02.802Z,101449.34
2023-04-09T06:07:05.959Z,101445.94
2023-04-09T06:08:08.749Z,101447.25
2023-04-09T06:09:10.979Z,101447.59
2023-04-09T06:10:13.378Z,101455.88
2023-04-09T06:11:15.974Z,101445.97
2023-04-09T06:12:19.697Z,101447.81
2023-04-09T06:13:22.423Z,101443.16
2023-04-09T06:14:24.710Z,101443.75
2023-04-09T06:15:27.674Z,101448.16
2023-04-09T06:16:30.166Z,101433.41
2023-04-09T06:17:32.508Z,101444.72
2023-04-09T06:18:36.469Z,101436.75
2023-04-09T06:19:38.768Z,101430.00
2023-04-09T06:20:42.361Z,101430.41
2023-04-09T06:21:47.709Z,101422.41
2023-04-09T06:22:50.135Z,101423.63
2023-04-09T06:23:53.926Z,101429.47
2023-04-09T06:24:56.822Z,101423.16
2023-04-09T06:25:59.583Z,101423.31
2023-04-09T06:27:04.287Z,101421.56
2023-04-09T06:28:06.900Z,101428.94
2023-04-09T06:29:09.252Z,101420.88
2023-04-09T06:30:11.934Z,101418.91
2023-04-09T06:31:14.358Z,101418.22
2023-04-09T06:32:17.274Z,101420.66
2023-04-09T06:33:22.587Z,101425.19
2023-04-09T06:34:24.941Z,101416.91
2023-04-09T06:35:28.978Z,101425.91
2023-04-09T06:36:33.017Z,101424.75
2023-04-09T06:37:35.300Z,101423.78
2023-04-09T06:38:37.608Z,101424.50
2023-04-09T06:39:47.710Z,101415.28
2023-04-09T06:41:02.625Z,101420.22
2023-04-09T06:42:04.999Z,101415.63
2023-04-09T06:43:14.254Z,101419.91
2023-04-09T06:44:24.935Z,101421.41
2023-04-09T06:45:27.752Z,101416.81
2023-04-09T06:46:30.321Z,101417.63
2023-04-09T06:47:32.731Z,101425.69
2023-04-09T06:48:35.268Z,101425.28
2023-04-09T06:49:38.064Z,101424.44
2023-04-09T06:50:40.532Z,101423.34
2023-04-09T06:51:42.869Z,101419.75
2023-04-09T06:52:45.214Z,101422.25
2023-04-09T06:53:48.531Z,101429.19
2023-04-09T06:54:52.218Z,101424.50
2023-04-09T06:55:56.707Z,101422.31
2023-04-09T06:56:59.508Z,101424.56
2023-04-09T06:58:02.993Z,101419.19
2023-04-09T06:59:07.932Z,101421.66
2023-04-09T07:00:11.048Z,101416.91
2023-04-09T07:01:13.352Z,101419.38
2023-04-09T07:02:15.978Z,101422.00
2023-04-09T07:03:18.488Z,101426.56
2023-04-09T07:04:21.447Z,101421.78
2023-04-09T07:05:24.342Z,101421.66
2023-04-09T07:06:26.689Z,101422.59
2023-04-09T07:07:29.060Z,101427.97
2023-04-09T07:08:31.417Z,101429.75
2023-04-09T07:09:34.172Z,101426.00
2023-04-09T07:10:36.819Z,101420.53
2023-04-09T07:11:39.212Z,101422.91
2023-04-09T07:12:41.617Z,101422.72
2023-04-09T07:13:44.063Z,101431.44
2023-04-09T07:14:46.398Z,101424.06
2023-04-09T07:15:48.757Z,101427.47
2023-04-09T07:16:51.103Z,101416.44
2023-04-09T07:17:53.599Z,101425.97
2023-04-09T07:18:56.054Z,101419.38
2023-04-09T07:19:58.550Z,101420.22
2023-04-09T07:21:01.043Z,101422.78
2023-04-09T07:22:03.382Z,101422.53
2023-04-09T07:23:06.018Z,101422.28
2023-04-09T07:24:10.762Z,101416.72
2023-04-09T07:25:13.122Z,101419.22
2023-04-09T07:26:15.529Z,101428.09
2023-04-09T07:27:18.021Z,101421.69
2023-04-09T07:28:20.451Z,101422.25
2023-04-09T07:29:22.858Z,101419.66
2023-04-09T07:30:25.249Z,101420.47
2023-04-09T07:31:27.673Z,101428.50
2023-04-09T07:32:30.374Z,101425.66
2023-04-09T07:33:32.896Z,101423.66
2023-04-09T07:34:38.046Z,101421.91
2023-04-09T07:35:40.583Z,101419.03
2023-04-09T07:36:43.243Z,101417.84
2023-04-09T07:37:45.795Z,101421.63
2023-04-09T07:38:50.371Z,101410.44
2023-04-09T07:39:53.688Z,101415.88
2023-04-09T07:40:56.238Z,101413.03
2023-04-09T07:41:58.580Z,101416.78
2023-04-09T07:43:01.245Z,101415.81
2023-04-09T07:44:04.160Z,101412.03
2023-04-09T07:45:07.510Z,101410.25
2023-04-09T07:46:09.869Z,101412.88
2023-04-09T07:47:13.155Z,101405.75
2023-04-09T07:48:15.656Z,101410.56
2023-04-09T07:49:18.059Z,101409.56
2023-04-09T07:50:20.575Z,101407.75
2023-04-09T07:51:22.964Z,101419.84
2023-04-09T07:52:25.307Z,101415.47
2023-04-09T07:53:27.839Z,101419.16
2023-04-09T07:54:31.697Z,101417.31
2023-04-09T07:55:34.006Z,101424.38
2023-04-09T07:56:36.541Z,101426.41
2023-04-09T07:57:38.964Z,101419.22
2023-04-09T07:58:41.273Z,101422.06
2023-04-09T07:59:43.566Z,101420.22
2023-04-09T08:00:45.893Z,101421.94
2023-04-09T08:01:48.356Z,101424.78
2023-04-09T08:02:51.141Z,101421.78
2023-04-09T08:03:53.761Z,101420.97
2023-04-09T08:04:56.188Z,101421.28
2023-04-09T08:05:58.568Z,101420.50
2023-04-09T08:07:00.921Z,101429.72
2023-04-09T08:08:03.606Z,101419.72
2023-04-09T08:09:08.568Z,101422.56
2023-04-09T08:10:15.298Z,101421.75
2023-04-09T08:11:22.347Z,101420.09
2023-04-09T08:12:24.649Z,101421.19
2023-04-09T08:13:26.971Z,101417.56
2023-04-09T08:14:29.321Z,101420.34
2023-04-09T08:15:31.666Z,101416.16
2023-04-09T08:16:34.002Z,101422.88
2023-04-09T08:17:37.488Z,101419.78
2023-04-09T08:18:40.000Z,101418.38
2023-04-09T08:19:42.329Z,101414.47
2023-04-09T08:20:45.511Z,101404.16
2023-04-09T08:21:50.655Z,101410.00
2023-04-09T08:22:53.342Z,101411.09
2023-04-09T08:23:59.753Z,101402.72
2023-04-09T08:25:02.919Z,101404.38
2023-04-09T08:26:05.400Z,101401.56
2023-04-09T08:27:07.897Z,101402.38
2023-04-09T08:28:10.155Z,101401.25
2023-04-09T08:29:13.865Z,101396.47
2023-04-09T08:30:18.274Z,101397.81
2023-04-09T08:31:21.232Z,101400.91
2023-04-09T08:32:23.616Z,101403.13
2023-04-09T08:33:26.723Z,101396.97
2023-04-09T08:34:29.003Z,101397.50
2023-04-09T08:35:31.585Z,101401.41
2023-04-09T08:36:35.672Z,101398.03
2023-04-09T08:37:38.553Z,101407.50
2023-04-09T08:38:42.213Z,101400.50
2023-04-09T08:39:44.530Z,101405.53
2023-04-09T08:40:46.936Z,101408.59
2023-04-09T08:41:52.150Z,101407.75
2023-04-09T08:42:58.811Z,101407.72
2023-04-09T08:44:01.129Z,101412.19
2023-04-09T08:45:06.371Z,101415.75
2023-04-09T08:46:10.764Z,101414.63
2023-04-09T08:47:13.686Z,101409.25
2023-04-09T08:48:17.215Z,101413.16
2023-04-09T08:49:19.753Z,101414.25
2023-04-09T08:50:22.600Z,101417.84
2023-04-09T08:51:25.236Z,101414.19
2023-04-09T08:52:32.981Z,101407.16
2023-04-09T08:53:36.375Z,101415.25
2023-04-09T08:54:38.789Z,101411.34
2023-04-09T08:55:45.086Z,101405.44
2023-04-09T08:56:47.932Z,101414.38
2023-04-09T08:57:50.474Z,101409.63
2023-04-09T08:58:53.991Z,101418.53
2023-04-09T08:59:56.621Z,101413.81
2023-04-09T09:00:58.943Z,101409.88
2023-04-09T09:02:12.074Z,101411.78
2023-04-09T09:03:14.902Z,101402.56
2023-04-09T09:04:17.454Z,101402.56
2023-04-09T09:05:36.041Z,101409.84
2023-04-09T09:06:41.269Z,101405.66
2023-04-09T09:07:54.725Z,101406.19
2023-04-09T09:09:13.959Z,101408.13
2023-04-09T09:10:16.400Z,101408.69
2023-04-09T09:11:28.076Z,101403.38
2023-04-09T09:12:41.343Z,101412.09
2023-04-09T09:13:43.648Z,101406.22
2023-04-09T09:14:46.669Z,101413.25
2023-04-09T09:15:52.975Z,101411.34
2023-04-09T09:16:58.245Z,101399.88
2023-04-09T09:18:01.020Z,101404.69
2023-04-09T09:19:03.532Z,101408.34
2023-04-09T09:20:27.282Z,101408.69
2023-04-09T09:21:30.379Z,101416.25
2023-04-09T09:22:49.572Z,101412.16
2023-04-09T09:23:58.287Z,101415.53
2023-04-09T09:25:00.643Z,101413.06
2023-04-09T09:26:12.691Z,101418.16
2023-04-09T09:27:37.048Z,101405.84
2023-04-09T09:28:39.582Z,101402.53
2023-04-09T09:29:42.918Z,101404.53
2023-04-09T09:30:48.628Z,101409.56
2023-04-09T09:31:53.979Z,101403.19
2023-04-09T09:33:12.673Z,101409.34
2023-04-09T09:34:17.157Z,101404.06
2023-04-09T09:35:19.671Z,101397.66
2023-04-09T09:36:35.254Z,101398.50
2023-04-09T09:37:37.515Z,101404.97
2023-04-09T09:38:57.514Z,101399.66
2023-04-09T09:40:01.218Z,101396.03
2023-04-09T09:41:18.091Z,101391.31
2023-04-09T09:42:20.440Z,101407.22
2023-04-09T09:43:22.915Z,101395.50
2023-04-09T09:44:33.125Z,101394.09
2023-04-09T09:45:37.478Z,101394.91
2023-04-09T09:46:42.640Z,101398.00
2023-04-09T09:47:45.925Z,101399.97
2023-04-09T09:48:50.196Z,101397.19
2023-04-09T09:49:52.797Z,101390.19
2023-04-09T09:50:55.290Z,101389.63
2023-04-09T09:52:00.152Z,101388.22
2023-04-09T09:53:06.243Z,101390.47
2023-04-09T09:54:13.106Z,101396.34
2023-04-09T09:55:18.035Z,101398.28
2023-04-09T09:56:24.989Z,101390.22
2023-04-09T09:57:30.198Z,101386.84
2023-04-09T09:58:44.225Z,101388.81
2023-04-09T10:00:05.853Z,101388.25
2023-04-09T10:01:18.469Z,101389.34
2023-04-09T10:02:23.628Z,101387.13
2023-04-09T10:03:29.437Z,101385.16
2023-04-09T10:04:36.113Z,101385.47
2023-04-09T10:05:40.782Z,101384.06
2023-04-09T10:06:48.347Z,101382.13
2023-04-09T10:07:51.987Z,101378.19
2023-04-09T10:09:01.034Z,101383.53
2023-04-09T10:10:05.384Z,101381.56
2023-04-09T10:11:08.050Z,101375.41
2023-04-09T10:12:12.210Z,101378.50
2023-04-09T10:13:21.481Z,101372.91
2023-04-09T10:14:24.663Z,101371.22
2023-04-09T10:15:30.132Z,101370.97
2023-04-09T10:16:33.192Z,101368.19
2023-04-09T10:17:35.727Z,101365.38
2023-04-09T10:18:38.167Z,101368.19
2023-04-09T10:19:49.738Z,101364.81
2023-04-09T10:20:59.816Z,101367.31
2023-04-09T10:22:11.869Z,101367.88
2023-04-09T10:23:24.466Z,101357.25
2023-04-09T10:24:26.788Z,101365.38
2023-04-09T10:25:29.171Z,101358.09
2023-04-09T10:26:40.391Z,101360.31
2023-04-09T10:27:46.283Z,101370.09
2023-04-09T10:29:09.652Z,101363.13
2023-04-09T10:30:32.584Z,101359.19
2023-04-09T10:31:54.287Z,101364.19
2023-04-09T10:32:56.720Z,101361.97
2023-04-09T10:34:04.297Z,101365.06
2023-04-09T10:35:09.510Z,101360.00
2023-04-09T10:36:13.346Z,101358.34
2023-04-09T10:37:20.781Z,101359.19
2023-04-09T10:38:45.361Z,101352.72
2023-04-09T10:39:49.029Z,101354.13
2023-04-09T10:40:51.588Z,101356.34
2023-04-09T10:41:55.150Z,101355.50
2023-04-09T10:42:58.333Z,101357.44
2023-04-09T10:44:00.755Z,101348.47
2023-04-09T10:45:07.849Z,101349.56
2023-04-09T10:46:30.220Z,101348.47
2023-04-09T10:47:36.788Z,101338.97
2023-04-09T10:48:39.058Z,101337.28
2023-04-09T10:49:42.256Z,101342.88
2023-04-09T10:50:44.869Z,101336.47
2023-04-09T10:52:03.556Z,101330.03
2023-04-09T10:53:06.495Z,101344.28
2023-04-09T10:54:37.836Z,101345.13
2023-04-09T10:55:41.814Z,101336.75
2023-04-09T10:57:16.867Z,101339.00
2023-04-09T10:58:19.748Z,101327.28
2023-04-09T10:59:22.059Z,101334.00
2023-04-09T11:00:24.340Z,101328.97
2023-04-09T11:01:27.505Z,101330.94
2023-04-09T11:02:39.046Z,101333.16
2023-04-09T11:03:45.213Z,101328.44
2023-04-09T11:05:00.473Z,101333.47
2023-04-09T11:06:09.505Z,101330.09
2023-04-09T11:07:12.788Z,101331.78
2023-04-09T11:08:17.324Z,101331.25
2023-04-09T11:09:19.620Z,101330.41
2023-04-09T11:10:22.186Z,101333.47
2023-04-09T11:11:28.467Z,101330.69
2023-04-09T11:12:30.801Z,101329.84
2023-04-09T11:13:33.253Z,101327.31
2023-04-09T11:14:35.557Z,101322.88
2023-04-09T11:15:37.904Z,101327.63
2023-04-09T11:18:09.014Z,101330.41
2023-04-09T11:19:11.508Z,101322.03
2023-04-09T11:20:16.760Z,101322.31
2023-04-09T11:21:19.087Z,101325.13
2023-04-09T11:22:21.546Z,101319.53
2023-04-09T11:23:24.951Z,101322.31
2023-04-09T11:24:27.290Z,101320.34
2023-04-09T11:25:31.837Z,101319.53
2023-04-09T11:26:38.380Z,101319.22
2023-04-09T11:27:46.817Z,101323.69
2023-04-09T11:28:49.410Z,101322.59
2023-04-09T11:29:56.461Z,101327.06
2023-04-09T11:31:00.183Z,101326.22
2023-04-09T11:32:02.902Z,101321.47
2023-04-09T11:33:05.272Z,101323.41
2023-04-09T11:34:11.541Z,101317.00
2023-04-09T11:35:21.165Z,101310.31
2023-04-09T11:36:23.924Z,101301.06
2023-04-09T11:37:26.417Z,101306.94
2023-04-09T11:38:31.857Z,101305.56
2023-04-09T11:39:38.405Z,101317.28
2023-04-09T11:40:48.507Z,101320.91
2023-04-09T11:41:51.298Z,101315.06
2023-04-09T11:42:55.484Z,101322.03
2023-04-09T11:43:57.850Z,101319.81
2023-04-09T11:45:02.664Z,101310.06
2023-04-09T11:46:08.309Z,101317.34
2023-04-09T11:47:11.582Z,101315.13
2023-04-09T11:48:15.233Z,101316.50
2023-04-09T11:49:17.865Z,101317.06
2023-04-09T11:50:21.352Z,101318.75
2023-04-09T11:51:24.462Z,101317.06
2023-04-09T11:52:28.199Z,101317.06
2023-04-09T11:53:31.432Z,101319.59
2023-04-09T11:54:34.747Z,101319.63
2023-04-09T11:55:38.472Z,101320.16
2023-04-09T11:56:40.807Z,101320.75
2023-04-09T11:57:46.846Z,101326.31
2023-04-09T11:58:49.722Z,101326.03
2023-04-09T11:59:53.506Z,101322.41
2023-04-09T12:01:00.813Z,101315.72
2023-04-09T12:02:08.563Z,101317.94
2023-04-09T12:03:12.510Z,101316.84
2023-04-09T12:04:24.258Z,101313.44
2023-04-09T12:05:29.894Z,101321.81
2023-04-09T12:06:33.393Z,101319.31
2023-04-09T12:07:39.578Z,101313.19
2023-04-09T12:08:45.336Z,101317.63
2023-04-09T12:09:51.962Z,101320.97
2023-04-09T12:10:54.848Z,101320.97
2023-04-09T12:12:00.130Z,101327.38
2023-04-09T12:13:14.136Z,101321.53
2023-04-09T12:14:17.910Z,101320.38
2023-04-09T12:15:27.461Z,101325.41
2023-04-09T12:16:36.943Z,101323.19
2023-04-09T12:17:39.766Z,101329.00
2023-04-09T12:18:42.158Z,101329.56
2023-04-09T12:19:52.146Z,101325.66
2023-04-09T12:20:54.388Z,101327.88
2023-04-09T12:21:58.975Z,101320.09
2023-04-09T12:23:03.770Z,101321.19
2023-04-09T12:24:09.158Z,101320.63
2023-04-09T12:25:11.602Z,101324.81
2023-04-09T12:26:16.681Z,101317.25
2023-04-09T12:27:19.086Z,101324.22
2023-04-09T12:28:22.004Z,101319.22
2023-04-09T12:29:26.126Z,101317.81
2023-04-09T12:30:28.465Z,101322.22